sensor_id;sensor_type;location;lat;lon;timestamp;P1;durP1;ratioP1;P2;durP2;ratioP2
4595;SDS011;2310;49.978;8.742;2022-08-01T00:03:25;3.40;;;2.53;;
4595;SDS011;2310;49.978;8.742;2022-08-01T00:07:26;4.00;;;3.20;;
4595;SDS011;2310;49.978;8.742;2022-08-01T00:11:28;3.67;;;3.10;;
4595;SDS011;2310;49.978;8.742;2022-08-01T00:15:29;5.70;;;2.93;;
4595;SDS011;2310;49.978;8.742;2022-08-01T00:19:30;3.27;;;2.60;;
4595;SDS011;2310;49.978;8.742;2022-08-01T00:23:31;4.30;;;2.90;;
4595;SDS011;2310;49.978;8.742;2022-08-01T00:27:33;7.07;;;3.23;;
4595;SDS011;2310;49.978;8.742;2022-08-01T00:31:36;3.80;;;3.13;;
4595;SDS011;2310;49.978;8.742;2022-08-01T00:35:37;3.47;;;2.90;;
4595;SDS011;2310;49.978;8.742;2022-08-01T00:39:38;4.50;;;2.70;;
4595;SDS011;2310;49.978;8.742;2022-08-01T00:43:40;9.20;;;2.80;;
4595;SDS011;2310;49.978;8.742;2022-08-01T00:47:41;4.53;;;2.80;;
4595;SDS011;2310;49.978;8.742;2022-08-01T00:51:42;3.30;;;2.40;;
4595;SDS011;2310;49.978;8.742;2022-08-01T00:55:44;3.10;;;2.70;;
4595;SDS011;2310;49.978;8.742;2022-08-01T00:59:45;5.77;;;3.93;;
4595;SDS011;2310;49.978;8.742;2022-08-01T01:03:49;4.03;;;2.83;;
4595;SDS011;2310;49.978;8.742;2022-08-01T01:07:59;4.30;;;3.47;;
4595;SDS011;2310;49.978;8.742;2022-08-01T01:16:24;6.70;;;3.70;;
4595;SDS011;2310;49.978;8.742;2022-08-01T01:20:30;3.87;;;2.97;;
4595;SDS011;2310;49.978;8.742;2022-08-01T01:24:39;4.63;;;3.63;;
4595;SDS011;2310;49.978;8.742;2022-08-01T01:33:09;4.40;;;2.50;;
4595;SDS011;2310;49.978;8.742;2022-08-01T01:37:15;7.03;;;2.93;;
4595;SDS011;2310;49.978;8.742;2022-08-01T01:41:18;3.80;;;3.07;;
4595;SDS011;2310;49.978;8.742;2022-08-01T01:45:20;2.90;;;2.50;;
4595;SDS011;2310;49.978;8.742;2022-08-01T01:49:25;3.23;;;2.47;;
4595;SDS011;2310;49.978;8.742;2022-08-01T01:53:28;2.60;;;2.00;;
4595;SDS011;2310;49.978;8.742;2022-08-01T01:57:31;5.43;;;2.90;;
4595;SDS011;2310;49.978;8.742;2022-08-01T02:01:33;3.67;;;2.97;;
4595;SDS011;2310;49.978;8.742;2022-08-01T02:05:38;3.50;;;2.80;;
4595;SDS011;2310;49.978;8.742;2022-08-01T02:09:42;3.23;;;2.93;;
4595;SDS011;2310;49.978;8.742;2022-08-01T02:13:53;3.57;;;3.10;;
4595;SDS011;2310;49.978;8.742;2022-08-01T02:17:56;3.30;;;2.80;;
4595;SDS011;2310;49.978;8.742;2022-08-01T02:22:13;3.47;;;2.87;;
4595;SDS011;2310;49.978;8.742;2022-08-01T02:26:32;4.07;;;3.00;;
4595;SDS011;2310;49.978;8.742;2022-08-01T02:30:35;3.20;;;2.90;;
4595;SDS011;2310;49.978;8.742;2022-08-01T02:34:39;5.37;;;2.50;;
4595;SDS011;2310;49.978;8.742;2022-08-01T02:38:43;4.23;;;2.40;;
4595;SDS011;2310;49.978;8.742;2022-08-01T02:42:49;3.20;;;2.70;;
4595;SDS011;2310;49.978;8.742;2022-08-01T02:46:52;3.57;;;2.93;;
4595;SDS011;2310;49.978;8.742;2022-08-01T02:50:57;3.47;;;2.53;;
4595;SDS011;2310;49.978;8.742;2022-08-01T02:55:00;3.00;;;2.57;;
4595;SDS011;2310;49.978;8.742;2022-08-01T02:59:04;4.37;;;2.50;;
4595;SDS011;2310;49.978;8.742;2022-08-01T03:03:08;5.50;;;2.70;;
4595;SDS011;2310;49.978;8.742;2022-08-01T03:07:10;3.97;;;2.70;;
4595;SDS011;2310;49.978;8.742;2022-08-01T03:11:13;4.50;;;3.10;;
4595;SDS011;2310;49.978;8.742;2022-08-01T03:15:16;3.20;;;2.77;;
4595;SDS011;2310;49.978;8.742;2022-08-01T03:19:18;4.33;;;2.90;;
4595;SDS011;2310;49.978;8.742;2022-08-01T03:23:23;4.73;;;3.30;;
4595;SDS011;2310;49.978;8.742;2022-08-01T03:27:26;3.03;;;2.50;;
4595;SDS011;2310;49.978;8.742;2022-08-01T03:31:28;6.13;;;2.50;;
4595;SDS011;2310;49.978;8.742;2022-08-01T03:35:34;4.37;;;2.80;;
4595;SDS011;2310;49.978;8.742;2022-08-01T03:39:37;3.53;;;2.87;;
4595;SDS011;2310;49.978;8.742;2022-08-01T03:43:45;3.67;;;3.07;;
4595;SDS011;2310;49.978;8.742;2022-08-01T03:47:49;3.37;;;2.50;;
4595;SDS011;2310;49.978;8.742;2022-08-01T03:51:53;3.43;;;3.10;;
4595;SDS011;2310;49.978;8.742;2022-08-01T03:55:56;4.63;;;2.93;;
4595;SDS011;2310;49.978;8.742;2022-08-01T04:00:00;3.50;;;2.60;;
4595;SDS011;2310;49.978;8.742;2022-08-01T04:04:05;4.83;;;3.10;;
4595;SDS011;2310;49.978;8.742;2022-08-01T04:08:07;4.47;;;3.60;;
4595;SDS011;2310;49.978;8.742;2022-08-01T04:12:09;4.70;;;3.17;;
4595;SDS011;2310;49.978;8.742;2022-08-01T04:16:12;3.73;;;3.00;;
4595;SDS011;2310;49.978;8.742;2022-08-01T04:20:13;4.83;;;2.97;;
4595;SDS011;2310;49.978;8.742;2022-08-01T04:24:17;6.67;;;3.10;;
4595;SDS011;2310;49.978;8.742;2022-08-01T04:28:21;5.40;;;3.20;;
4595;SDS011;2310;49.978;8.742;2022-08-01T04:32:24;4.40;;;3.37;;
4595;SDS011;2310;49.978;8.742;2022-08-01T04:36:27;3.23;;;2.23;;
4595;SDS011;2310;49.978;8.742;2022-08-01T04:40:30;3.87;;;2.67;;
4595;SDS011;2310;49.978;8.742;2022-08-01T04:44:32;4.00;;;3.20;;
4595;SDS011;2310;49.978;8.742;2022-08-01T04:48:36;4.50;;;3.23;;
4595;SDS011;2310;49.978;8.742;2022-08-01T04:52:38;4.10;;;3.00;;
4595;SDS011;2310;49.978;8.742;2022-08-01T04:56:41;4.10;;;3.70;;
4595;SDS011;2310;49.978;8.742;2022-08-01T05:00:42;3.93;;;3.00;;
4595;SDS011;2310;49.978;8.742;2022-08-01T05:04:44;4.63;;;3.37;;
4595;SDS011;2310;49.978;8.742;2022-08-01T05:08:47;3.13;;;2.73;;
4595;SDS011;2310;49.978;8.742;2022-08-01T05:12:48;4.10;;;3.00;;
4595;SDS011;2310;49.978;8.742;2022-08-01T05:16:49;3.63;;;2.60;;
4595;SDS011;2310;49.978;8.742;2022-08-01T05:20:50;4.53;;;2.50;;
4595;SDS011;2310;49.978;8.742;2022-08-01T05:24:52;4.60;;;2.60;;
4595;SDS011;2310;49.978;8.742;2022-08-01T05:28:54;4.27;;;2.20;;
4595;SDS011;2310;49.978;8.742;2022-08-01T05:32:55;3.23;;;2.10;;
4595;SDS011;2310;49.978;8.742;2022-08-01T05:36:57;3.17;;;1.80;;
4595;SDS011;2310;49.978;8.742;2022-08-01T05:40:59;3.07;;;2.63;;
4595;SDS011;2310;49.978;8.742;2022-08-01T05:45:00;3.60;;;2.20;;
4595;SDS011;2310;49.978;8.742;2022-08-01T05:49:02;3.33;;;2.30;;
4595;SDS011;2310;49.978;8.742;2022-08-01T05:53:04;3.10;;;2.13;;
4595;SDS011;2310;49.978;8.742;2022-08-01T05:57:06;3.87;;;2.23;;
4595;SDS011;2310;49.978;8.742;2022-08-01T06:01:07;3.00;;;2.10;;
4595;SDS011;2310;49.978;8.742;2022-08-01T06:05:09;3.70;;;2.10;;
4595;SDS011;2310;49.978;8.742;2022-08-01T06:09:12;3.87;;;2.30;;
4595;SDS011;2310;49.978;8.742;2022-08-01T06:13:14;2.77;;;2.20;;
4595;SDS011;2310;49.978;8.742;2022-08-01T06:17:15;3.90;;;2.60;;
4595;SDS011;2310;49.978;8.742;2022-08-01T06:21:17;4.80;;;2.17;;
4595;SDS011;2310;49.978;8.742;2022-08-01T06:25:18;3.30;;;2.70;;
4595;SDS011;2310;49.978;8.742;2022-08-01T06:29:21;3.40;;;2.00;;
4595;SDS011;2310;49.978;8.742;2022-08-01T06:33:23;3.80;;;2.37;;
4595;SDS011;2310;49.978;8.742;2022-08-01T06:37:28;2.73;;;2.10;;
4595;SDS011;2310;49.978;8.742;2022-08-01T06:41:31;3.20;;;2.50;;
4595;SDS011;2310;49.978;8.742;2022-08-01T06:45:32;4.37;;;2.70;;
4595;SDS011;2310;49.978;8.742;2022-08-01T06:49:34;3.30;;;2.33;;
4595;SDS011;2310;49.978;8.742;2022-08-01T06:53:36;2.83;;;2.43;;
4595;SDS011;2310;49.978;8.742;2022-08-01T06:57:44;3.30;;;2.40;;
4595;SDS011;2310;49.978;8.742;2022-08-01T07:01:47;4.90;;;2.90;;
4595;SDS011;2310;49.978;8.742;2022-08-01T07:05:48;3.27;;;2.60;;
4595;SDS011;2310;49.978;8.742;2022-08-01T07:09:50;6.97;;;2.90;;
4595;SDS011;2310;49.978;8.742;2022-08-01T07:13:53;4.20;;;2.80;;
4595;SDS011;2310;49.978;8.742;2022-08-01T07:17:54;4.50;;;2.80;;
4595;SDS011;2310;49.978;8.742;2022-08-01T07:21:55;3.60;;;2.57;;
4595;SDS011;2310;49.978;8.742;2022-08-01T07:25:58;3.30;;;2.80;;
4595;SDS011;2310;49.978;8.742;2022-08-01T07:30:01;7.00;;;3.10;;
4595;SDS011;2310;49.978;8.742;2022-08-01T07:34:04;5.93;;;3.17;;
4595;SDS011;2310;49.978;8.742;2022-08-01T07:38:08;4.80;;;2.80;;
4595;SDS011;2310;49.978;8.742;2022-08-01T07:42:11;4.97;;;3.10;;
4595;SDS011;2310;49.978;8.742;2022-08-01T07:46:13;3.73;;;3.00;;
4595;SDS011;2310;49.978;8.742;2022-08-01T07:50:14;3.53;;;2.60;;
4595;SDS011;2310;49.978;8.742;2022-08-01T07:54:16;4.77;;;2.53;;
4595;SDS011;2310;49.978;8.742;2022-08-01T07:58:18;5.17;;;3.40;;
4595;SDS011;2310;49.978;8.742;2022-08-01T08:02:19;5.60;;;5.10;;
4595;SDS011;2310;49.978;8.742;2022-08-01T08:06:20;3.57;;;2.97;;
4595;SDS011;2310;49.978;8.742;2022-08-01T08:10:22;4.53;;;2.97;;
4595;SDS011;2310;49.978;8.742;2022-08-01T08:14:23;4.13;;;2.83;;
4595;SDS011;2310;49.978;8.742;2022-08-01T08:18:27;4.63;;;3.10;;
4595;SDS011;2310;49.978;8.742;2022-08-01T08:22:28;4.10;;;2.80;;
4595;SDS011;2310;49.978;8.742;2022-08-01T08:26:29;3.70;;;2.97;;
4595;SDS011;2310;49.978;8.742;2022-08-01T08:30:30;3.33;;;2.83;;
4595;SDS011;2310;49.978;8.742;2022-08-01T08:34:32;6.50;;;3.20;;
4595;SDS011;2310;49.978;8.742;2022-08-01T08:38:34;3.50;;;3.20;;
4595;SDS011;2310;49.978;8.742;2022-08-01T08:42:35;4.00;;;2.67;;
4595;SDS011;2310;49.978;8.742;2022-08-01T08:46:40;3.43;;;2.53;;
4595;SDS011;2310;49.978;8.742;2022-08-01T08:50:43;4.00;;;3.60;;
4595;SDS011;2310;49.978;8.742;2022-08-01T08:54:46;3.80;;;3.10;;
4595;SDS011;2310;49.978;8.742;2022-08-01T08:58:49;7.53;;;4.10;;
4595;SDS011;2310;49.978;8.742;2022-08-01T09:02:52;4.27;;;3.43;;
4595;SDS011;2310;49.978;8.742;2022-08-01T09:06:55;4.00;;;3.57;;
4595;SDS011;2310;49.978;8.742;2022-08-01T09:10:56;4.13;;;3.73;;
4595;SDS011;2310;49.978;8.742;2022-08-01T09:14:57;4.10;;;3.70;;
4595;SDS011;2310;49.978;8.742;2022-08-01T09:19:12;3.40;;;3.10;;
4595;SDS011;2310;49.978;8.742;2022-08-01T09:23:39;5.67;;;3.57;;
4595;SDS011;2310;49.978;8.742;2022-08-01T09:27:33;8.60;;;3.80;;
4595;SDS011;2310;49.978;8.742;2022-08-01T09:31:44;3.50;;;2.70;;
4595;SDS011;2310;49.978;8.742;2022-08-01T09:35:44;5.40;;;3.70;;
4595;SDS011;2310;49.978;8.742;2022-08-01T09:39:54;5.33;;;3.70;;
4595;SDS011;2310;49.978;8.742;2022-08-01T09:43:54;3.83;;;3.43;;
4595;SDS011;2310;49.978;8.742;2022-08-01T09:47:56;4.70;;;3.30;;
4595;SDS011;2310;49.978;8.742;2022-08-01T09:51:58;3.83;;;3.17;;
4595;SDS011;2310;49.978;8.742;2022-08-01T09:56:08;4.00;;;3.70;;
4595;SDS011;2310;49.978;8.742;2022-08-01T10:00:16;5.40;;;3.20;;
4595;SDS011;2310;49.978;8.742;2022-08-01T10:04:19;3.80;;;3.40;;
4595;SDS011;2310;49.978;8.742;2022-08-01T10:08:22;3.90;;;3.20;;
4595;SDS011;2310;49.978;8.742;2022-08-01T10:12:27;5.60;;;3.00;;
4595;SDS011;2310;49.978;8.742;2022-08-01T10:16:29;3.80;;;3.40;;
4595;SDS011;2310;49.978;8.742;2022-08-01T10:20:33;4.60;;;3.80;;
4595;SDS011;2310;49.978;8.742;2022-08-01T10:24:37;4.33;;;3.93;;
4595;SDS011;2310;49.978;8.742;2022-08-01T10:28:40;3.77;;;3.37;;
4595;SDS011;2310;49.978;8.742;2022-08-01T10:32:45;3.10;;;2.40;;
4595;SDS011;2310;49.978;8.742;2022-08-01T10:36:49;3.43;;;2.50;;
4595;SDS011;2310;49.978;8.742;2022-08-01T10:40:51;3.40;;;3.10;;
4595;SDS011;2310;49.978;8.742;2022-08-01T10:44:55;3.00;;;2.70;;
4595;SDS011;2310;49.978;8.742;2022-08-01T10:49:01;4.00;;;2.63;;
4595;SDS011;2310;49.978;8.742;2022-08-01T10:53:18;3.17;;;2.63;;
4595;SDS011;2310;49.978;8.742;2022-08-01T10:57:22;4.20;;;2.70;;
4595;SDS011;2310;49.978;8.742;2022-08-01T11:05:34;3.30;;;2.17;;
4595;SDS011;2310;49.978;8.742;2022-08-01T11:18:03;5.10;;;3.63;;
4595;SDS011;2310;49.978;8.742;2022-08-01T11:22:12;3.50;;;2.80;;
4595;SDS011;2310;49.978;8.742;2022-08-01T11:26:13;4.13;;;2.80;;
4595;SDS011;2310;49.978;8.742;2022-08-01T11:34:51;3.07;;;2.47;;
4595;SDS011;2310;49.978;8.742;2022-08-01T11:47:18;3.07;;;2.77;;
4595;SDS011;2310;49.978;8.742;2022-08-01T11:51:24;4.20;;;2.67;;
4595;SDS011;2310;49.978;8.742;2022-08-01T11:55:27;3.00;;;2.70;;
4595;SDS011;2310;49.978;8.742;2022-08-01T11:59:35;3.33;;;2.67;;
4595;SDS011;2310;49.978;8.742;2022-08-01T12:03:40;4.30;;;2.73;;
4595;SDS011;2310;49.978;8.742;2022-08-01T12:07:43;3.37;;;2.83;;
4595;SDS011;2310;49.978;8.742;2022-08-01T12:11:47;4.50;;;3.30;;
4595;SDS011;2310;49.978;8.742;2022-08-01T12:15:48;4.50;;;3.00;;
4595;SDS011;2310;49.978;8.742;2022-08-01T12:19:52;5.73;;;2.47;;
4595;SDS011;2310;49.978;8.742;2022-08-01T12:24:03;2.90;;;2.40;;
4595;SDS011;2310;49.978;8.742;2022-08-01T12:28:04;3.00;;;2.43;;
4595;SDS011;2310;49.978;8.742;2022-08-01T12:32:29;3.80;;;2.90;;
4595;SDS011;2310;49.978;8.742;2022-08-01T12:36:27;3.20;;;2.80;;
4595;SDS011;2310;49.978;8.742;2022-08-01T12:40:30;3.00;;;2.40;;
4595;SDS011;2310;49.978;8.742;2022-08-01T12:44:33;3.00;;;2.37;;
4595;SDS011;2310;49.978;8.742;2022-08-01T12:48:35;5.23;;;4.03;;
4595;SDS011;2310;49.978;8.742;2022-08-01T12:52:37;2.70;;;2.40;;
4595;SDS011;2310;49.978;8.742;2022-08-01T12:56:39;4.33;;;2.90;;
4595;SDS011;2310;49.978;8.742;2022-08-01T13:00:40;5.43;;;3.40;;
4595;SDS011;2310;49.978;8.742;2022-08-01T13:04:50;3.57;;;2.97;;
4595;SDS011;2310;49.978;8.742;2022-08-01T13:08:52;3.40;;;3.10;;
4595;SDS011;2310;49.978;8.742;2022-08-01T13:12:54;4.23;;;2.90;;
4595;SDS011;2310;49.978;8.742;2022-08-01T13:16:58;2.70;;;2.10;;
4595;SDS011;2310;49.978;8.742;2022-08-01T13:21:15;13.47;;;11.80;;
4595;SDS011;2310;49.978;8.742;2022-08-01T13:25:18;22.30;;;20.13;;
4595;SDS011;2310;49.978;8.742;2022-08-01T13:29:28;9.30;;;8.50;;
4595;SDS011;2310;49.978;8.742;2022-08-01T13:33:44;3.87;;;2.57;;
4595;SDS011;2310;49.978;8.742;2022-08-01T13:37:49;2.90;;;2.43;;
4595;SDS011;2310;49.978;8.742;2022-08-01T13:41:51;5.13;;;2.70;;
4595;SDS011;2310;49.978;8.742;2022-08-01T13:45:53;3.70;;;3.30;;
4595;SDS011;2310;49.978;8.742;2022-08-01T13:49:54;2.83;;;2.33;;
4595;SDS011;2310;49.978;8.742;2022-08-01T13:53:56;4.00;;;2.73;;
4595;SDS011;2310;49.978;8.742;2022-08-01T13:57:57;2.80;;;2.30;;
4595;SDS011;2310;49.978;8.742;2022-08-01T14:01:58;3.70;;;2.60;;
4595;SDS011;2310;49.978;8.742;2022-08-01T14:06:00;5.33;;;2.87;;
4595;SDS011;2310;49.978;8.742;2022-08-01T14:10:02;3.17;;;2.83;;
4595;SDS011;2310;49.978;8.742;2022-08-01T14:14:05;2.90;;;2.60;;
4595;SDS011;2310;49.978;8.742;2022-08-01T14:18:09;4.23;;;2.70;;
4595;SDS011;2310;49.978;8.742;2022-08-01T14:22:11;3.50;;;2.43;;
4595;SDS011;2310;49.978;8.742;2022-08-01T14:26:12;2.83;;;2.30;;
4595;SDS011;2310;49.978;8.742;2022-08-01T14:30:14;2.90;;;2.50;;
4595;SDS011;2310;49.978;8.742;2022-08-01T14:34:15;3.13;;;2.40;;
4595;SDS011;2310;49.978;8.742;2022-08-01T14:38:17;3.20;;;2.63;;
4595;SDS011;2310;49.978;8.742;2022-08-01T14:42:20;2.77;;;2.57;;
4595;SDS011;2310;49.978;8.742;2022-08-01T14:46:21;3.20;;;2.70;;
4595;SDS011;2310;49.978;8.742;2022-08-01T14:50:23;3.60;;;3.27;;
4595;SDS011;2310;49.978;8.742;2022-08-01T14:54:24;5.17;;;3.00;;
4595;SDS011;2310;49.978;8.742;2022-08-01T14:58:27;3.53;;;2.80;;
4595;SDS011;2310;49.978;8.742;2022-08-01T15:02:29;4.63;;;2.77;;
4595;SDS011;2310;49.978;8.742;2022-08-01T15:06:30;5.33;;;4.10;;
4595;SDS011;2310;49.978;8.742;2022-08-01T15:10:32;4.20;;;2.90;;
4595;SDS011;2310;49.978;8.742;2022-08-01T15:14:33;3.70;;;3.17;;
4595;SDS011;2310;49.978;8.742;2022-08-01T15:18:50;3.57;;;3.23;;
4595;SDS011;2310;49.978;8.742;2022-08-01T15:22:51;3.57;;;3.13;;
4595;SDS011;2310;49.978;8.742;2022-08-01T15:26:53;3.97;;;3.53;;
4595;SDS011;2310;49.978;8.742;2022-08-01T15:30:54;4.17;;;2.80;;
4595;SDS011;2310;49.978;8.742;2022-08-01T15:34:55;4.40;;;3.10;;
4595;SDS011;2310;49.978;8.742;2022-08-01T15:38:57;3.50;;;3.17;;
4595;SDS011;2310;49.978;8.742;2022-08-01T15:42:58;5.10;;;4.07;;
4595;SDS011;2310;49.978;8.742;2022-08-01T15:47:00;3.83;;;3.17;;
4595;SDS011;2310;49.978;8.742;2022-08-01T15:51:02;3.40;;;3.10;;
4595;SDS011;2310;49.978;8.742;2022-08-01T15:55:03;5.17;;;3.07;;
4595;SDS011;2310;49.978;8.742;2022-08-01T15:59:06;4.23;;;2.43;;
4595;SDS011;2310;49.978;8.742;2022-08-01T16:03:07;3.33;;;2.90;;
4595;SDS011;2310;49.978;8.742;2022-08-01T16:07:10;5.30;;;2.77;;
4595;SDS011;2310;49.978;8.742;2022-08-01T16:11:11;3.47;;;2.53;;
4595;SDS011;2310;49.978;8.742;2022-08-01T16:15:13;3.73;;;2.87;;
4595;SDS011;2310;49.978;8.742;2022-08-01T16:19:14;5.50;;;2.70;;
4595;SDS011;2310;49.978;8.742;2022-08-01T16:23:17;3.50;;;3.20;;
4595;SDS011;2310;49.978;8.742;2022-08-01T16:27:18;4.67;;;2.70;;
4595;SDS011;2310;49.978;8.742;2022-08-01T16:31:22;3.30;;;2.67;;
4595;SDS011;2310;49.978;8.742;2022-08-01T16:35:26;2.73;;;2.30;;
4595;SDS011;2310;49.978;8.742;2022-08-01T16:39:29;3.43;;;2.70;;
4595;SDS011;2310;49.978;8.742;2022-08-01T16:43:32;3.37;;;2.83;;
4595;SDS011;2310;49.978;8.742;2022-08-01T16:47:33;3.07;;;2.63;;
4595;SDS011;2310;49.978;8.742;2022-08-01T16:51:34;5.10;;;4.60;;
4595;SDS011;2310;49.978;8.742;2022-08-01T16:55:37;14.00;;;6.73;;
4595;SDS011;2310;49.978;8.742;2022-08-01T16:59:40;8.07;;;5.77;;
4595;SDS011;2310;49.978;8.742;2022-08-01T17:03:42;3.70;;;3.40;;
4595;SDS011;2310;49.978;8.742;2022-08-01T17:07:46;4.60;;;3.67;;
4595;SDS011;2310;49.978;8.742;2022-08-01T17:11:47;4.30;;;3.90;;
4595;SDS011;2310;49.978;8.742;2022-08-01T17:15:49;4.10;;;3.57;;
4595;SDS011;2310;49.978;8.742;2022-08-01T17:19:52;3.40;;;3.10;;
4595;SDS011;2310;49.978;8.742;2022-08-01T17:23:53;4.10;;;3.03;;
4595;SDS011;2310;49.978;8.742;2022-08-01T17:27:55;4.90;;;3.80;;
4595;SDS011;2310;49.978;8.742;2022-08-01T17:31:56;4.30;;;3.83;;
4595;SDS011;2310;49.978;8.742;2022-08-01T17:35:57;4.03;;;3.63;;
4595;SDS011;2310;49.978;8.742;2022-08-01T17:39:59;3.60;;;3.30;;
4595;SDS011;2310;49.978;8.742;2022-08-01T17:44:02;4.60;;;3.53;;
4595;SDS011;2310;49.978;8.742;2022-08-01T17:48:03;3.67;;;2.73;;
4595;SDS011;2310;49.978;8.742;2022-08-01T17:52:05;3.37;;;3.07;;
4595;SDS011;2310;49.978;8.742;2022-08-01T17:56:06;4.47;;;3.17;;
4595;SDS011;2310;49.978;8.742;2022-08-01T18:00:08;4.00;;;3.60;;
4595;SDS011;2310;49.978;8.742;2022-08-01T18:04:10;4.10;;;3.70;;
4595;SDS011;2310;49.978;8.742;2022-08-01T18:08:13;3.20;;;2.90;;
4595;SDS011;2310;49.978;8.742;2022-08-01T18:12:14;3.67;;;3.20;;
4595;SDS011;2310;49.978;8.742;2022-08-01T18:16:18;3.50;;;3.10;;
4595;SDS011;2310;49.978;8.742;2022-08-01T18:20:19;3.43;;;3.13;;
4595;SDS011;2310;49.978;8.742;2022-08-01T18:24:21;4.43;;;3.20;;
4595;SDS011;2310;49.978;8.742;2022-08-01T18:28:24;4.33;;;3.20;;
4595;SDS011;2310;49.978;8.742;2022-08-01T18:32:28;3.40;;;3.10;;
4595;SDS011;2310;49.978;8.742;2022-08-01T18:36:29;6.20;;;4.03;;
4595;SDS011;2310;49.978;8.742;2022-08-01T18:40:33;4.23;;;3.33;;
4595;SDS011;2310;49.978;8.742;2022-08-01T18:44:34;3.50;;;3.20;;
4595;SDS011;2310;49.978;8.742;2022-08-01T18:48:36;4.90;;;3.73;;
4595;SDS011;2310;49.978;8.742;2022-08-01T18:52:37;4.20;;;3.80;;
4595;SDS011;2310;49.978;8.742;2022-08-01T18:56:39;6.50;;;3.73;;
4595;SDS011;2310;49.978;8.742;2022-08-01T19:00:42;5.10;;;3.87;;
4595;SDS011;2310;49.978;8.742;2022-08-01T19:04:43;4.17;;;3.77;;
4595;SDS011;2310;49.978;8.742;2022-08-01T19:08:44;3.80;;;3.40;;
4595;SDS011;2310;49.978;8.742;2022-08-01T19:12:45;4.00;;;3.60;;
4595;SDS011;2310;49.978;8.742;2022-08-01T19:16:47;4.83;;;4.33;;
4595;SDS011;2310;49.978;8.742;2022-08-01T19:20:48;4.53;;;3.83;;
4595;SDS011;2310;49.978;8.742;2022-08-01T19:24:49;4.87;;;3.87;;
4595;SDS011;2310;49.978;8.742;2022-08-01T19:28:51;4.00;;;3.60;;
4595;SDS011;2310;49.978;8.742;2022-08-01T19:32:54;4.97;;;4.47;;
4595;SDS011;2310;49.978;8.742;2022-08-01T19:36:56;9.63;;;5.33;;
4595;SDS011;2310;49.978;8.742;2022-08-01T19:40:58;4.10;;;3.60;;
4595;SDS011;2310;49.978;8.742;2022-08-01T19:45:00;5.03;;;4.53;;
4595;SDS011;2310;49.978;8.742;2022-08-01T19:49:04;4.97;;;4.53;;
4595;SDS011;2310;49.978;8.742;2022-08-01T19:53:05;6.90;;;4.63;;
4595;SDS011;2310;49.978;8.742;2022-08-01T19:57:11;5.43;;;4.93;;
4595;SDS011;2310;49.978;8.742;2022-08-01T20:01:13;5.53;;;4.63;;
4595;SDS011;2310;49.978;8.742;2022-08-01T20:05:15;6.77;;;5.17;;
4595;SDS011;2310;49.978;8.742;2022-08-01T20:09:16;5.80;;;4.93;;
4595;SDS011;2310;49.978;8.742;2022-08-01T20:13:17;5.07;;;4.57;;
4595;SDS011;2310;49.978;8.742;2022-08-01T20:17:20;4.93;;;4.40;;
4595;SDS011;2310;49.978;8.742;2022-08-01T20:21:22;5.37;;;4.20;;
4595;SDS011;2310;49.978;8.742;2022-08-01T20:25:26;5.23;;;4.40;;
4595;SDS011;2310;49.978;8.742;2022-08-01T20:29:31;5.00;;;4.50;;
4595;SDS011;2310;49.978;8.742;2022-08-01T20:33:33;4.43;;;4.03;;
4595;SDS011;2310;49.978;8.742;2022-08-01T20:37:38;4.67;;;4.17;;
4595;SDS011;2310;49.978;8.742;2022-08-01T20:41:42;4.20;;;3.80;;
4595;SDS011;2310;49.978;8.742;2022-08-01T20:45:44;4.50;;;4.10;;
4595;SDS011;2310;49.978;8.742;2022-08-01T20:49:46;4.63;;;4.23;;
4595;SDS011;2310;49.978;8.742;2022-08-01T20:53:49;4.50;;;4.10;;
4595;SDS011;2310;49.978;8.742;2022-08-01T20:57:52;4.97;;;4.40;;
4595;SDS011;2310;49.978;8.742;2022-08-01T21:06:19;4.77;;;4.37;;
4595;SDS011;2310;49.978;8.742;2022-08-01T21:10:24;4.90;;;4.40;;
4595;SDS011;2310;49.978;8.742;2022-08-01T21:14:34;4.57;;;4.10;;
4595;SDS011;2310;49.978;8.742;2022-08-01T21:27:13;4.03;;;3.63;;
4595;SDS011;2310;49.978;8.742;2022-08-01T21:31:19;4.37;;;3.63;;
4595;SDS011;2310;49.978;8.742;2022-08-01T21:35:24;4.03;;;3.63;;
4595;SDS011;2310;49.978;8.742;2022-08-01T21:39:26;4.10;;;3.70;;
4595;SDS011;2310;49.978;8.742;2022-08-01T21:43:27;3.13;;;2.83;;
4595;SDS011;2310;49.978;8.742;2022-08-01T21:47:32;5.70;;;4.07;;
4595;SDS011;2310;49.978;8.742;2022-08-01T21:51:43;4.00;;;3.60;;
4595;SDS011;2310;49.978;8.742;2022-08-01T22:00:14;3.57;;;3.27;;
4595;SDS011;2310;49.978;8.742;2022-08-01T22:04:25;3.93;;;3.57;;
4595;SDS011;2310;49.978;8.742;2022-08-01T22:12:35;3.40;;;3.10;;
4595;SDS011;2310;49.978;8.742;2022-08-01T22:16:37;3.70;;;3.40;;
4595;SDS011;2310;49.978;8.742;2022-08-01T22:20:40;3.37;;;3.07;;
4595;SDS011;2310;49.978;8.742;2022-08-01T22:24:42;3.13;;;2.83;;
4595;SDS011;2310;49.978;8.742;2022-08-01T22:28:45;3.60;;;3.30;;
4595;SDS011;2310;49.978;8.742;2022-08-01T22:32:48;3.27;;;2.97;;
4595;SDS011;2310;49.978;8.742;2022-08-01T22:36:52;4.27;;;3.87;;
4595;SDS011;2310;49.978;8.742;2022-08-01T22:41:01;3.40;;;3.10;;
4595;SDS011;2310;49.978;8.742;2022-08-01T22:45:09;4.50;;;4.03;;
4595;SDS011;2310;49.978;8.742;2022-08-01T22:49:16;4.20;;;3.43;;
4595;SDS011;2310;49.978;8.742;2022-08-01T22:54:37;8.10;;;3.93;;
4595;SDS011;2310;49.978;8.742;2022-08-01T22:57:57;3.23;;;2.87;;
4595;SDS011;2310;49.978;8.742;2022-08-01T23:02:00;4.10;;;3.60;;
4595;SDS011;2310;49.978;8.742;2022-08-01T23:06:11;4.50;;;3.63;;
4595;SDS011;2310;49.978;8.742;2022-08-01T23:10:14;4.93;;;3.70;;
4595;SDS011;2310;49.978;8.742;2022-08-01T23:14:15;6.17;;;2.93;;
4595;SDS011;2310;49.978;8.742;2022-08-01T23:18:20;4.03;;;3.17;;
4595;SDS011;2310;49.978;8.742;2022-08-01T23:22:21;3.20;;;2.90;;
4595;SDS011;2310;49.978;8.742;2022-08-01T23:26:25;6.03;;;2.67;;
4595;SDS011;2310;49.978;8.742;2022-08-01T23:30:29;3.80;;;3.17;;
4595;SDS011;2310;49.978;8.742;2022-08-01T23:34:31;3.73;;;2.90;;
4595;SDS011;2310;49.978;8.742;2022-08-01T23:38:32;4.67;;;3.20;;
4595;SDS011;2310;49.978;8.742;2022-08-01T23:42:34;5.80;;;3.70;;
4595;SDS011;2310;49.978;8.742;2022-08-01T23:46:36;3.07;;;2.70;;
4595;SDS011;2310;49.978;8.742;2022-08-01T23:50:37;5.13;;;2.83;;
4595;SDS011;2310;49.978;8.742;2022-08-01T23:54:39;4.17;;;3.60;;
4595;SDS011;2310;49.978;8.742;2022-08-01T23:58:41;5.17;;;3.70;;
